Time;durP1;ratioP1;P1;durP2;ratioP2;P2;SDS_P1;SDS_P2;PMS_P1;PMS_P2;Temp;Humidity;BMP_temperature;BMP_pressure;BME280_temperature;BME280_humidity;BME280_pressure;Samples;Min_cycle;Max_cycle;Signal;HPM_P1;HPM_P2
2022/06/23 00:02:24;;;;;;;8.63;6.23;;;;;;;-141.29;100.00;58932.97;5094769;28;20203;-74
2022/06/23 00:04:55;;;;;;;13.73;6.67;;;;;;;-141.29;100.00;58932.97;5094912;28;20195;-75
2022/06/23 00:07:25;;;;;;;16.87;6.40;;;;;;;-141.29;100.00;58932.97;5094826;28;20622;-75
2022/06/23 00:09:53;;;;;;;13.60;6.37;;;;;;;-141.29;100.00;58932.97;5095309;28;20332;-76
2022/06/23 00:12:26;;;;;;;11.93;6.53;;;;;;;-141.29;100.00;58932.97;5094539;28;20199;-77
2022/06/23 00:14:56;;;;;;;13.03;6.07;;;;;;;-141.29;100.00;58932.97;5094559;28;20200;-74
2022/06/23 00:17:26;;;;;;;10.73;7.00;;;;;;;-141.29;100.00;58932.97;5094595;28;20203;-74
2022/06/23 00:19:54;;;;;;;11.40;6.97;;;;;;;-141.29;100.00;58932.97;5094497;28;20231;-75
2022/06/23 00:22:25;;;;;;;10.07;6.07;;;;;;;-141.29;100.00;58932.97;5094715;28;20208;-74
2022/06/23 00:24:55;;;;;;;10.33;5.80;;;;;;;-141.29;100.00;58932.97;5094594;28;20208;-74
2022/06/23 00:27:31;;;;;;;11.00;6.57;;;;;;;-141.29;100.00;58932.97;5094339;28;20265;-74
2022/06/23 00:30:01;;;;;;;11.40;6.40;;;;;;;-141.29;100.00;58932.97;5094531;28;20256;-73
2022/06/23 00:32:30;;;;;;;11.87;6.77;;;;;;;-141.29;100.00;58932.97;5094548;28;20694;-75
2022/06/23 00:35:00;;;;;;;13.00;6.63;;;;;;;-141.29;100.00;58932.97;5094334;28;20196;-74
2022/06/23 00:37:27;;;;;;;6.00;5.27;;;;;;;-141.29;100.00;58932.97;5094928;28;20203;-74
2022/06/23 00:39:58;;;;;;;11.40;6.47;;;;;;;-141.29;100.00;58932.97;5094408;28;20235;-74
2022/06/23 00:42:29;;;;;;;9.90;6.30;;;;;;;-141.29;100.00;58932.97;5094165;28;20254;-74
2022/06/23 00:45:01;;;;;;;16.83;6.50;;;;;;;-141.29;100.00;58932.97;5094451;28;20200;-74
2022/06/23 00:47:35;;;;;;;10.00;6.73;;;;;;;-141.29;100.00;58932.97;5094140;28;20210;-75
2022/06/23 00:50:14;;;;;;;12.97;6.37;;;;;;;-141.29;100.00;58932.97;5091746;28;20223;-75
2022/06/23 00:52:46;;;;;;;11.97;6.50;;;;;;;-141.29;100.00;58932.97;5093135;28;20230;-73
2022/06/23 00:55:18;;;;;;;10.10;6.40;;;;;;;-141.29;100.00;58932.97;5093989;28;20273;-75
2022/06/23 00:57:52;;;;;;;8.67;5.73;;;;;;;-141.29;100.00;58932.97;5093536;28;20204;-74
2022/06/23 01:00:24;;;;;;;14.23;6.60;;;;;;;-141.29;100.00;58932.97;5093772;28;20232;-74
2022/06/23 01:02:56;;;;;;;12.07;6.57;;;;;;;-141.29;100.00;58932.97;5093850;28;20592;-73
2022/06/23 01:05:29;;;;;;;11.73;6.57;;;;;;;-141.29;100.00;58932.97;5093486;28;20666;-75
2022/06/23 01:08:10;;;;;;;9.63;6.40;;;;;;;-141.29;100.00;58932.97;5093426;28;20204;-74
2022/06/23 01:10:46;;;;;;;12.27;6.73;;;;;;;-141.29;100.00;58932.97;5093348;28;20199;-74
2022/06/23 01:13:30;;;;;;;13.10;6.90;;;;;;;-141.29;100.00;58932.97;5094013;28;20203;-73
2022/06/23 01:16:02;;;;;;;14.27;6.50;;;;;;;-141.29;100.00;58932.97;5093543;28;20222;-76
2022/06/23 01:18:36;;;;;;;11.60;6.30;;;;;;;-141.29;100.00;58932.97;5093693;28;20227;-73
2022/06/23 01:21:08;;;;;;;10.47;6.40;;;;;;;-141.29;100.00;58932.97;5093500;28;20252;-75
2022/06/23 01:23:53;;;;;;;14.13;7.00;;;;;;;-141.29;100.00;58932.97;5092985;28;20214;-75
2022/06/23 01:26:53;;;;;;;10.67;6.27;;;;;;;-141.29;100.00;58932.97;5093255;28;20195;-74
2022/06/23 01:29:28;;;;;;;10.80;6.17;;;;;;;-141.29;100.00;58932.97;5093534;28;20623;-74
2022/06/23 01:31:59;;;;;;;12.27;6.50;;;;;;;-141.29;100.00;58932.97;5092785;28;20207;-75
2022/06/23 01:34:34;;;;;;;10.77;5.90;;;;;;;-141.29;100.00;58932.97;5093037;28;20261;-75
2022/06/23 01:37:04;;;;;;;14.67;6.70;;;;;;;-141.29;100.00;58932.97;5093263;28;20218;-75
2022/06/23 01:39:39;;;;;;;10.93;6.87;;;;;;;-141.29;100.00;58932.97;5093135;28;20227;-74
2022/06/23 01:42:18;;;;;;;10.80;6.97;;;;;;;-141.29;100.00;58932.97;5092748;28;20235;-74
2022/06/23 01:44:51;;;;;;;17.30;7.70;;;;;;;-141.29;100.00;58932.97;5093134;28;20199;-74
2022/06/23 01:47:25;;;;;;;10.77;7.07;;;;;;;-141.29;100.00;58932.97;5093352;28;20214;-73
2022/06/23 01:49:59;;;;;;;11.47;6.53;;;;;;;-141.29;100.00;58932.97;5093053;28;20215;-75
2022/06/23 01:52:26;;;;;;;15.37;7.17;;;;;;;-141.29;100.00;58932.97;5092416;28;20676;-76
2022/06/23 01:55:03;;;;;;;11.73;7.07;;;;;;;-141.29;100.00;58932.97;5093043;28;20222;-73
2022/06/23 01:57:35;;;;;;;15.43;6.80;;;;;;;-141.29;100.00;58932.97;5092559;28;20211;-74
2022/06/23 02:00:13;;;;;;;14.53;7.97;;;;;;;-141.29;100.00;58932.97;5092775;28;20223;-74
2022/06/23 02:02:58;;;;;;;16.00;8.17;;;;;;;-141.29;100.00;58932.97;5092605;28;20199;-73
2022/06/23 02:05:36;;;;;;;17.77;8.77;;;;;;;-141.29;100.00;58932.97;5091981;28;20192;-73
2022/06/23 02:08:10;;;;;;;13.03;8.50;;;;;;;-141.29;100.00;58932.97;5092544;28;20210;-74
2022/06/23 02:10:45;;;;;;;14.70;8.30;;;;;;;-141.29;100.00;58932.97;5092623;28;20195;-74
2022/06/23 02:13:19;;;;;;;14.57;8.90;;;;;;;-141.29;100.00;58932.97;5092499;28;20662;-74
2022/06/23 02:16:01;;;;;;;16.10;8.43;;;;;;;-141.29;100.00;58932.97;5092303;28;20195;-75
2022/06/23 02:18:33;;;;;;;12.13;9.20;;;;;;;-141.29;100.00;58932.97;5092184;28;20632;-73
2022/06/23 02:21:21;;;;;;;14.80;9.93;;;;;;;-141.29;100.00;58932.97;5092187;28;20203;-74
2022/06/23 02:23:54;;;;;;;18.87;9.10;;;;;;;-141.29;100.00;58932.97;5092061;28;20199;-73
2022/06/23 02:26:31;;;;;;;13.33;9.30;;;;;;;-141.29;100.00;58932.97;5092510;28;20203;-75
2022/06/23 02:29:03;;;;;;;17.03;8.27;;;;;;;-141.29;100.00;58932.97;5091887;28;20589;-74
2022/06/23 02:31:40;;;;;;;14.53;7.40;;;;;;;-141.29;100.00;58932.97;5092203;28;20207;-73
2022/06/23 02:34:16;;;;;;;10.90;7.40;;;;;;;-141.29;100.00;58932.97;5092652;28;20229;-73
2022/06/23 02:37:07;;;;;;;14.17;7.17;;;;;;;-141.29;100.00;58932.97;5092152;28;20195;-74
2022/06/23 02:39:43;;;;;;;13.53;6.77;;;;;;;-141.29;100.00;58932.97;5089294;28;20219;-74
2022/06/23 02:42:24;;;;;;;10.63;5.80;;;;;;;-141.29;100.00;58932.97;5092142;28;20242;-75
2022/06/23 02:45:15;;;;;;;11.43;6.00;;;;;;;-141.29;100.00;58932.97;5091855;28;20205;-76
2022/06/23 02:48:03;;;;;;;12.10;6.00;;;;;;;-141.29;100.00;58932.97;5091451;28;20237;-73
2022/06/23 02:50:47;;;;;;;10.37;6.30;;;;;;;-141.29;100.00;58932.97;5091755;28;20247;-74
2022/06/23 02:53:34;;;;;;;12.13;6.03;;;;;;;-141.29;100.00;58932.97;5091920;28;20207;-74
2022/06/23 02:56:26;;;;;;;17.43;6.10;;;;;;;-141.29;100.00;58932.97;5073551;28;20211;-73
2022/06/23 02:58:58;;;;;;;7.30;5.47;;;;;;;-141.29;100.00;58932.97;5092090;28;20238;-73
2022/06/23 03:01:30;;;;;;;10.00;5.80;;;;;;;-141.29;100.00;58932.97;5091861;28;20207;-73
2022/06/23 03:04:04;;;;;;;17.13;6.73;;;;;;;-141.29;100.00;58932.97;5091481;28;20651;-73
2022/06/23 03:06:39;;;;;;;15.30;6.50;;;;;;;-141.29;100.00;58932.97;5091403;28;20204;-74
2022/06/23 03:09:13;;;;;;;14.80;6.23;;;;;;;-141.29;100.00;58932.97;5091607;28;20207;-73
2022/06/23 03:11:55;;;;;;;14.30;7.10;;;;;;;-141.29;100.00;58932.97;5091633;28;20206;-73
2022/06/23 03:14:32;;;;;;;16.37;7.57;;;;;;;-141.29;100.00;58932.97;5091499;28;20200;-75
2022/06/23 03:17:05;;;;;;;19.43;8.03;;;;;;;-141.29;100.00;58932.97;5073443;28;20214;-73
2022/06/23 03:19:39;;;;;;;18.03;7.23;;;;;;;-141.29;100.00;58932.97;5091228;28;20740;-73
2022/06/23 03:22:16;;;;;;;17.57;7.57;;;;;;;-141.29;100.00;58932.97;5091752;28;20280;-74
2022/06/23 03:24:53;;;;;;;16.17;6.83;;;;;;;-141.29;100.00;58932.97;5091292;28;20226;-75
2022/06/23 03:27:29;;;;;;;15.03;8.80;;;;;;;-141.29;100.00;58932.97;5073432;28;20268;-73
2022/06/23 03:30:00;;;;;;;18.60;9.00;;;;;;;-141.29;100.00;58932.97;5091456;28;20203;-73
2022/06/23 03:32:32;;;;;;;15.47;9.23;;;;;;;-141.29;100.00;58932.97;5093198;28;20203;-74
2022/06/23 03:35:06;;;;;;;19.07;9.40;;;;;;;-141.29;100.00;58932.97;5095472;28;20203;-75
2022/06/23 03:37:48;;;;;;;19.27;10.03;;;;;;;-141.29;100.00;58932.97;5095293;28;20206;-73
2022/06/23 03:43:18;;;;;;;21.83;9.87;;;;;;;-141.29;100.00;58932.97;5095624;28;20249;-74
2022/06/23 03:45:51;;;;;;;20.67;10.03;;;;;;;-141.29;100.00;58932.97;5095369;28;20642;-74
2022/06/23 03:48:24;;;;;;;17.70;10.23;;;;;;;-141.29;100.00;58932.97;5095100;28;20218;-73
2022/06/23 03:50:58;;;;;;;19.83;10.53;;;;;;;-141.29;100.00;58932.97;5095107;28;20207;-74
2022/06/23 03:53:29;;;;;;;17.40;10.13;;;;;;;-141.29;100.00;58932.97;5094966;28;20662;-74
2022/06/23 03:55:58;;;;;;;16.87;10.67;;;;;;;-141.29;100.00;58932.97;5095562;28;20222;-73
2022/06/23 03:58:34;;;;;;;21.43;10.90;;;;;;;-141.29;100.00;58932.97;5094735;28;20209;-74
2022/06/23 04:01:07;;;;;;;23.33;11.30;;;;;;;-141.29;100.00;58932.97;5095213;28;20250;-74
2022/06/23 04:03:42;;;;;;;17.40;11.00;;;;;;;-141.29;100.00;58932.97;5094984;28;20208;-74
2022/06/23 04:06:35;;;;;;;23.20;12.97;;;;;;;-141.29;100.00;58932.97;5095146;28;20677;-74
2022/06/23 04:09:10;;;;;;;21.93;12.07;;;;;;;-141.29;100.00;58932.97;5096823;28;20200;-73
2022/06/23 04:11:48;;;;;;;22.73;11.23;;;;;;;-141.29;100.00;58932.97;5106937;28;20654;-73
2022/06/23 04:14:32;;;;;;;20.77;12.57;;;;;;;-141.29;100.00;58932.97;5095040;28;20210;-74
2022/06/23 04:17:11;;;;;;;25.47;11.00;;;;;;;-141.29;100.00;58932.97;5094692;28;20206;-74
2022/06/23 04:19:44;;;;;;;20.30;10.50;;;;;;;-141.29;100.00;58932.97;5094523;28;20723;-75
2022/06/23 04:22:22;;;;;;;18.00;11.10;;;;;;;-141.29;100.00;58932.97;5094718;28;20202;-73
2022/06/23 04:24:53;;;;;;;24.27;11.23;;;;;;;-141.29;100.00;58932.97;5094628;28;20255;-73
2022/06/23 04:27:27;;;;;;;26.37;11.97;;;;;;;-141.29;100.00;58932.97;5094237;28;20202;-74
2022/06/23 04:29:58;;;;;;;22.80;10.90;;;;;;;-141.29;100.00;58932.97;5094540;28;20671;-72
2022/06/23 04:32:28;;;;;;;18.83;10.60;;;;;;;-141.29;100.00;58932.97;5094333;28;20196;-73
2022/06/23 04:35:00;;;;;;;36.70;11.97;;;;;;;-141.29;100.00;58932.97;5094584;28;20203;-75
2022/06/23 04:37:51;;;;;;;27.60;11.17;;;;;;;-141.29;100.00;58932.97;5094503;28;20204;-73
2022/06/23 04:40:25;;;;;;;22.40;10.80;;;;;;;-141.29;100.00;58932.97;5094910;28;20231;-73
2022/06/23 04:42:57;;;;;;;20.40;10.07;;;;;;;-141.29;100.00;58932.97;5094130;28;20319;-74
2022/06/23 04:45:53;;;;;;;16.03;10.53;;;;;;;-141.29;100.00;58932.97;5094315;28;20632;-75
2022/06/23 04:48:26;;;;;;;21.03;9.90;;;;;;;-141.29;100.00;58932.97;5076354;28;20649;-73
2022/06/23 04:50:59;;;;;;;23.93;11.53;;;;;;;-141.29;100.00;58932.97;5094121;28;20204;-73
2022/06/23 04:53:49;;;;;;;22.70;9.80;;;;;;;-141.29;100.00;58932.97;5094027;28;20670;-74
2022/06/23 04:56:34;;;;;;;17.97;9.80;;;;;;;-141.29;100.00;58932.97;5090924;28;20199;-73
2022/06/23 04:59:14;;;;;;;17.83;10.07;;;;;;;-141.29;100.00;58932.97;5080868;28;20277;-74
2022/06/23 05:01:46;;;;;;;14.17;9.67;;;;;;;-141.29;100.00;58932.97;5093750;28;20256;-74
2022/06/23 05:04:19;;;;;;;20.77;9.63;;;;;;;-141.29;100.00;58932.97;5094044;28;20211;-74
2022/06/23 05:06:49;;;;;;;18.30;9.20;;;;;;;-141.29;100.00;58932.97;5093436;28;20200;-76
2022/06/23 05:09:26;;;;;;;16.43;9.47;;;;;;;-141.29;100.00;58932.97;5093708;28;20203;-74
2022/06/23 05:11:57;;;;;;;14.87;9.03;;;;;;;-141.29;100.00;58932.97;5093693;28;20252;-73
2022/06/23 05:14:31;;;;;;;17.00;8.90;;;;;;;-141.29;100.00;58932.97;5093977;28;20203;-73
2022/06/23 05:17:06;;;;;;;16.07;8.67;;;;;;;-141.29;100.00;58932.97;5080199;28;20196;-73
2022/06/23 05:19:36;;;;;;;19.57;10.23;;;;;;;-141.29;100.00;58932.97;5093145;28;20292;-73
2022/06/23 05:22:17;;;;;;;23.23;10.27;;;;;;;-141.29;100.00;58932.97;5093415;28;20210;-73
2022/06/23 05:24:48;;;;;;;28.10;10.23;;;;;;;-141.29;100.00;58932.97;5075184;28;20243;-74
2022/06/23 05:27:20;;;;;;;21.40;7.93;;;;;;;-141.29;100.00;58932.97;5093270;28;20662;-73
2022/06/23 05:29:53;;;;;;;14.20;8.07;;;;;;;-141.29;100.00;58932.97;5093102;28;20212;-74
2022/06/23 05:32:24;;;;;;;18.23;9.33;;;;;;;-141.29;100.00;58932.97;5093161;28;20199;-75
2022/06/23 05:34:59;;;;;;;16.43;8.57;;;;;;;-141.29;100.00;58932.97;5093033;28;20227;-74
2022/06/23 05:37:30;;;;;;;18.67;9.00;;;;;;;-141.29;100.00;58932.97;5092964;28;20191;-73
2022/06/23 05:40:13;;;;;;;20.07;9.90;;;;;;;-141.29;100.00;58932.97;5093042;28;20625;-74
2022/06/23 05:42:46;;;;;;;15.53;8.53;;;;;;;-141.29;100.00;58932.97;5092922;28;20227;-72
2022/06/23 05:45:20;;;;;;;19.90;8.77;;;;;;;-141.29;100.00;58932.97;5093191;28;20203;-73
2022/06/23 05:47:47;;;;;;;15.70;8.43;;;;;;;-141.29;100.00;58932.97;5093128;28;20200;-73
2022/06/23 05:50:19;;;;;;;14.40;7.60;;;;;;;-141.29;100.00;58932.97;5093696;28;20717;-73
2022/06/23 05:52:53;;;;;;;15.23;8.80;;;;;;;-141.29;100.00;58932.97;5100049;28;20204;-76
2022/06/23 05:55:30;;;;;;;13.40;8.57;;;;;;;-141.29;100.00;58932.97;5094802;28;20210;-74
2022/06/23 05:58:02;;;;;;;20.63;9.23;;;;;;;-141.29;100.00;58932.97;5093413;28;20212;-73
2022/06/23 06:00:35;;;;;;;21.07;8.93;;;;;;;-141.29;100.00;58932.97;5092581;28;20219;-74
2022/06/23 06:03:10;;;;;;;41.13;10.13;;;;;;;-141.29;100.00;58932.97;5092887;28;20215;-74
2022/06/23 06:05:44;;;;;;;32.27;13.27;;;;;;;-141.29;100.00;58932.97;5092536;28;20203;-77
2022/06/23 06:08:17;;;;;;;27.57;10.03;;;;;;;-141.29;100.00;58932.97;5075126;28;20203;-76
2022/06/23 06:10:47;;;;;;;30.17;10.37;;;;;;;-141.29;100.00;58932.97;5092815;28;20208;-75
2022/06/23 06:13:17;;;;;;;14.57;6.40;;;;;;;-141.29;100.00;58932.97;5078934;28;20286;-76
2022/06/23 06:15:50;;;;;;;13.30;6.53;;;;;;;-141.29;100.00;58932.97;5092587;28;20203;-77
2022/06/23 06:18:25;;;;;;;14.33;5.83;;;;;;;-141.29;100.00;58932.97;5092770;28;20211;-77
2022/06/23 06:20:56;;;;;;;13.50;7.20;;;;;;;-141.29;100.00;58932.97;5092776;28;20239;-76
2022/06/23 06:23:33;;;;;;;13.83;6.93;;;;;;;-141.29;100.00;58932.97;5092331;28;20686;-75
2022/06/23 06:26:02;;;;;;;14.10;7.30;;;;;;;-141.29;100.00;58932.97;5092468;28;20249;-76
2022/06/23 06:28:31;;;;;;;19.90;8.27;;;;;;;-141.29;100.00;58932.97;5091847;28;20283;-75
2022/06/23 06:31:04;;;;;;;14.60;8.33;;;;;;;-141.29;100.00;58932.97;5092218;28;20210;-74
2022/06/23 06:33:43;;;;;;;19.90;9.00;;;;;;;-141.29;100.00;58932.97;5091879;28;20624;-76
2022/06/23 06:36:31;;;;;;;13.13;7.73;;;;;;;-141.29;100.00;58932.97;5091978;28;20283;-74
2022/06/23 06:39:05;;;;;;;10.93;6.97;;;;;;;-141.29;100.00;58932.97;5079266;28;20278;-74
2022/06/23 06:41:37;;;;;;;16.83;8.00;;;;;;;-141.29;100.00;58932.97;5091742;28;20239;-75
2022/06/23 06:44:05;;;;;;;14.43;8.70;;;;;;;-141.29;100.00;58932.97;5092858;28;20216;-74
2022/06/23 06:46:32;;;;;;;17.53;8.20;;;;;;;-141.29;100.00;58932.97;5091323;28;20210;-73
2022/06/23 06:49:01;;;;;;;11.67;7.60;;;;;;;-141.29;100.00;58932.97;5077318;28;20230;-73
2022/06/23 06:51:30;;;;;;;19.63;7.97;;;;;;;-141.29;100.00;58932.97;5091504;28;20207;-75
2022/06/23 06:54:02;;;;;;;19.83;8.17;;;;;;;-141.29;100.00;58932.97;5091703;28;20207;-74
2022/06/23 06:56:40;;;;;;;14.20;7.93;;;;;;;-141.29;100.00;58932.97;5091387;28;20196;-72
2022/06/23 06:59:16;;;;;;;14.40;8.00;;;;;;;-141.29;100.00;58932.97;5091695;28;20200;-74
2022/06/23 07:01:50;;;;;;;14.23;7.57;;;;;;;-141.29;100.00;58932.97;5091258;28;20706;-75
2022/06/23 07:04:26;;;;;;;14.90;8.03;;;;;;;-141.29;100.00;58932.97;5091244;28;20670;-74
2022/06/23 07:06:58;;;;;;;16.47;7.17;;;;;;;-141.29;100.00;58932.97;5091300;28;20207;-74
2022/06/23 07:09:34;;;;;;;11.10;6.83;;;;;;;-141.29;100.00;58932.97;5091456;28;20215;-74
2022/06/23 07:12:10;;;;;;;13.53;7.03;;;;;;;-141.29;100.00;58932.97;5091589;28;20202;-74
2022/06/23 07:14:44;;;;;;;15.40;7.63;;;;;;;-141.29;100.00;58932.97;5091609;28;20231;-75
2022/06/23 07:17:18;;;;;;;10.13;6.80;;;;;;;-141.29;100.00;58932.97;5091341;28;20206;-75
2022/06/23 07:19:51;;;;;;;12.70;6.73;;;;;;;-141.29;100.00;58932.97;5091321;28;20517;-73
2022/06/23 07:22:24;;;;;;;15.23;7.17;;;;;;;-141.29;100.00;58932.97;5091502;28;20207;-75
2022/06/23 07:24:59;;;;;;;18.67;7.73;;;;;;;-141.29;100.00;58932.97;5091113;28;20226;-74
2022/06/23 07:27:37;;;;;;;14.30;8.03;;;;;;;-141.29;100.00;58932.97;5093804;28;20205;-75
2022/06/23 07:30:07;;;;;;;20.77;9.20;;;;;;;-141.29;100.00;58932.97;5094101;28;20203;-75
2022/06/23 07:32:47;;;;;;;18.53;8.03;;;;;;;-141.29;100.00;58932.97;5091384;28;20199;-75
2022/06/23 07:35:28;;;;;;;15.53;8.57;;;;;;;-141.29;100.00;58932.97;5091403;28;20302;-76
2022/06/23 07:38:11;;;;;;;13.63;9.10;;;;;;;-141.29;100.00;58932.97;5092025;28;20226;-75
2022/06/23 07:40:43;;;;;;;18.03;9.63;;;;;;;-141.29;100.00;58932.97;5091439;28;20227;-76
2022/06/23 07:43:17;;;;;;;18.57;9.67;;;;;;;-141.29;100.00;58932.97;5091255;28;20234;-74
2022/06/23 07:45:51;;;;;;;13.60;8.27;;;;;;;-141.29;100.00;58932.97;5094722;28;20283;-75
2022/06/23 07:48:19;;;;;;;14.97;8.63;;;;;;;-141.29;100.00;58932.97;5091423;28;20238;-74
2022/06/23 07:50:46;;;;;;;13.13;8.50;;;;;;;-141.29;100.00;58932.97;5091489;28;20270;-75
2022/06/23 07:53:19;;;;;;;12.40;7.53;;;;;;;-141.29;100.00;58932.97;5091597;28;20237;-75
2022/06/23 07:55:49;;;;;;;15.20;7.87;;;;;;;-141.29;100.00;58932.97;5090803;28;20203;-76
2022/06/23 07:58:22;;;;;;;14.83;7.20;;;;;;;-141.29;100.00;58932.97;5090672;28;20200;-73
2022/06/23 08:00:54;;;;;;;10.17;6.77;;;;;;;-141.29;100.00;58932.97;5091039;28;20288;-73
2022/06/23 08:03:30;;;;;;;10.47;6.70;;;;;;;-141.29;100.00;58932.97;5091187;28;20256;-73
2022/06/23 08:06:02;;;;;;;12.83;7.53;;;;;;;-141.29;100.00;58932.97;5091034;28;20206;-73
2022/06/23 08:08:34;;;;;;;10.53;7.30;;;;;;;-141.29;100.00;58932.97;5090655;28;20617;-75
2022/06/23 08:13:51;;;;;;;12.90;7.80;;;;;;;-141.29;100.00;58932.97;5056969;28;20211;-74
2022/06/23 08:19:10;;;;;;;13.37;7.50;;;;;;;-141.29;100.00;58932.97;5093807;28;20206;-75
2022/06/23 08:21:42;;;;;;;15.10;6.93;;;;;;;-141.29;100.00;58932.97;5081198;28;20223;-76
2022/06/23 08:24:12;;;;;;;11.73;7.03;;;;;;;-141.29;100.00;58932.97;5094412;28;20659;-75
2022/06/23 08:26:43;;;;;;;11.40;7.10;;;;;;;-141.29;100.00;58932.97;5094248;28;20282;-74
2022/06/23 08:29:17;;;;;;;12.43;7.60;;;;;;;-141.29;100.00;58932.97;5094248;28;20203;-75
2022/06/23 08:31:44;;;;;;;11.13;7.33;;;;;;;-141.29;100.00;58932.97;5081209;28;20283;-73
2022/06/23 08:34:11;;;;;;;15.67;8.17;;;;;;;-141.29;100.00;58932.97;5094075;28;20530;-75
2022/06/23 08:36:43;;;;;;;12.00;7.57;;;;;;;-141.29;100.00;58932.97;5094249;28;20201;-76
2022/06/23 08:39:17;;;;;;;13.40;7.77;;;;;;;-141.29;100.00;58932.97;5094134;28;20211;-74
2022/06/23 08:41:50;;;;;;;14.73;8.47;;;;;;;-141.29;100.00;58932.97;5094313;28;20326;-74
2022/06/23 08:44:30;;;;;;;14.93;8.17;;;;;;;-141.29;100.00;58932.97;5099319;28;20203;-73
2022/06/23 08:47:04;;;;;;;14.27;7.80;;;;;;;-141.29;100.00;58932.97;5098884;28;20730;-76
2022/06/23 08:49:36;;;;;;;12.27;7.00;;;;;;;-141.29;100.00;58932.97;5093947;28;20232;-75
2022/06/23 08:52:11;;;;;;;9.67;6.63;;;;;;;-141.29;100.00;58932.97;5094072;28;20743;-73
2022/06/23 08:54:46;;;;;;;12.17;6.73;;;;;;;-141.29;100.00;58932.97;5093918;28;20647;-75
2022/06/23 08:57:19;;;;;;;13.50;6.40;;;;;;;-141.29;100.00;58932.97;5093877;28;20596;-74
2022/06/23 08:59:55;;;;;;;7.47;5.03;;;;;;;-141.29;100.00;58932.97;5093946;28;20662;-73
2022/06/23 09:02:29;;;;;;;8.30;5.10;;;;;;;-141.29;100.00;58932.97;5098008;28;20251;-74
2022/06/23 09:05:03;;;;;;;6.93;4.70;;;;;;;-141.29;100.00;58932.97;5094136;28;20642;-74
2022/06/23 09:07:44;;;;;;;9.20;4.90;;;;;;;-141.29;100.00;58932.97;5094721;28;20570;-75
2022/06/23 09:10:25;;;;;;;9.03;4.53;;;;;;;-141.29;100.00;58932.97;5094155;28;20273;-74
2022/06/23 09:13:01;;;;;;;9.97;4.30;;;;;;;-141.29;100.00;58932.97;5093415;28;20204;-73
2022/06/23 09:15:48;;;;;;;8.93;4.67;;;;;;;-141.29;100.00;58932.97;5093578;28;20200;-73
2022/06/23 09:19:03;;;;;;;10.53;4.67;;;;;;;-141.29;100.00;58932.97;5093258;28;20195;-75
2022/06/23 09:21:52;;;;;;;9.10;4.43;;;;;;;-141.29;100.00;58932.97;5089812;28;20228;-74
2022/06/23 09:24:47;;;;;;;7.23;4.10;;;;;;;-141.29;100.00;58932.97;5093538;28;20214;-73
2022/06/23 09:27:26;;;;;;;16.20;5.20;;;;;;;-141.29;100.00;58932.97;5093503;28;20212;-73
2022/06/23 09:29:57;;;;;;;10.87;4.60;;;;;;;-141.29;100.00;58932.97;5091822;28;20205;-73
2022/06/23 09:32:48;;;;;;;10.27;4.70;;;;;;;-141.29;100.00;58932.97;5093348;28;20384;-74
2022/06/23 09:35:36;;;;;;;11.80;5.03;;;;;;;-141.29;100.00;58932.97;5063162;28;20662;-72
2022/06/23 09:38:40;;;;;;;9.17;4.37;;;;;;;-141.29;100.00;58932.97;5093105;28;20206;-74
2022/06/23 09:41:21;;;;;;;9.10;4.83;;;;;;;-141.29;100.00;58932.97;5092670;28;20234;-75
2022/06/23 09:44:16;;;;;;;9.83;4.60;;;;;;;-141.29;100.00;58932.97;5092691;28;20211;-74
2022/06/23 09:47:07;;;;;;;9.03;4.57;;;;;;;-141.29;100.00;58932.97;5092628;28;20666;-73
2022/06/23 09:50:07;;;;;;;12.23;4.70;;;;;;;-141.29;100.00;58932.97;5081297;28;20748;-72
2022/06/23 09:53:03;;;;;;;9.20;5.77;;;;;;;-141.29;100.00;58932.97;5073817;28;20216;-74
2022/06/23 09:55:59;;;;;;;14.87;5.17;;;;;;;-141.29;100.00;58932.97;5092837;28;20227;-74
2022/06/23 09:58:46;;;;;;;9.20;4.87;;;;;;;-141.29;100.00;58932.97;5092334;28;20214;-74
2022/06/23 10:01:23;;;;;;;10.63;5.80;;;;;;;-141.29;100.00;58932.97;5092303;28;20256;-73
2022/06/23 10:04:03;;;;;;;9.77;5.10;;;;;;;-141.29;100.00;58932.97;5092154;28;20206;-73
2022/06/23 10:07:04;;;;;;;15.60;5.60;;;;;;;-141.29;100.00;58932.97;5092679;28;20597;-73
2022/06/23 10:09:44;;;;;;;11.10;5.57;;;;;;;-141.29;100.00;58932.97;5081797;28;20192;-74
2022/06/23 10:12:44;;;;;;;17.87;6.20;;;;;;;-141.29;100.00;58932.97;5092128;28;20206;-74
2022/06/23 10:15:35;;;;;;;8.47;5.50;;;;;;;-141.29;100.00;58932.97;5092222;28;20196;-75
2022/06/23 10:18:25;;;;;;;12.40;5.50;;;;;;;-141.29;100.00;58932.97;5092239;28;20199;-75
2022/06/23 10:21:05;;;;;;;13.37;5.80;;;;;;;-141.29;100.00;58932.97;5092229;28;20199;-73
2022/06/23 10:26:57;;;;;;;12.57;5.43;;;;;;;26.47;100.00;63636.72;5089124;27;20549;-75
2022/06/23 10:29:54;;;;;;;11.80;5.07;;;;;;;26.48;100.00;63637.81;5088895;28;20216;-75
2022/06/23 10:32:48;;;;;;;8.23;4.20;;;;;;;26.73;100.00;63665.53;5084756;28;20195;-74
2022/06/23 10:35:29;;;;;;;11.87;4.93;;;;;;;27.21;100.00;63717.19;5088991;28;20231;-73
2022/06/23 10:38:14;;;;;;;5.27;4.07;;;;;;;27.46;100.00;63747.06;5089760;28;20215;-74
2022/06/23 10:41:02;;;;;;;12.33;4.90;;;;;;;27.50;100.00;63748.25;5088341;28;20195;-73
2022/06/23 10:46:34;;;;;;;14.00;5.07;;;;;;;28.09;100.00;63811.94;5096183;28;20212;-74
2022/06/23 10:49:39;;;;;;;8.07;4.60;;;;;;;28.56;100.00;63867.81;5088395;28;20241;-73
2022/06/23 10:52:40;;;;;;;8.93;5.10;;;;;;;28.06;100.00;63808.66;5088607;28;20209;-73
2022/06/23 10:55:28;;;;;;;8.33;4.83;;;;;;;28.53;100.00;63865.09;5077743;28;20225;-74
2022/06/23 10:58:14;;;;;;;9.03;5.57;;;;;;;28.20;100.00;63821.84;5076830;28;20577;-73
2022/06/23 11:00:54;;;;;;;9.70;5.17;;;;;;;28.82;100.00;63890.91;5062239;28;20202;-73
2022/06/23 11:04:09;;;;;;;11.23;5.90;;;;;;;28.56;100.00;63862.56;5088037;28;20616;-74
2022/06/23 11:07:06;;;;;;;11.10;5.30;;;;;;;28.43;100.00;63854.19;5026156;28;20313;-74
2022/06/23 11:09:44;;;;;;;10.23;5.23;;;;;;;27.79;100.00;63782.41;5025601;28;20202;-76
2022/06/23 11:12:26;;;;;;;10.93;5.50;;;;;;;28.51;100.00;63857.66;5076972;28;20195;-74
2022/06/23 11:15:08;;;;;;;10.20;5.60;;;;;;;29.07;100.00;63918.69;5088283;28;20214;-74
2022/06/23 11:17:58;;;;;;;12.73;5.90;;;;;;;29.53;100.00;63962.50;5088332;28;20206;-74
2022/06/23 11:20:37;;;;;;;17.07;5.53;;;;;;;29.89;100.00;64009.63;5087811;28;20204;-74
2022/06/23 11:23:14;;;;;;;11.23;5.50;;;;;;;29.84;100.00;64002.09;5088476;28;20208;-74
2022/06/23 11:26:04;;;;;;;10.70;6.33;;;;;;;30.09;100.00;64028.81;5087508;28;20684;-74
2022/06/23 11:28:51;;;;;;;11.60;6.47;;;;;;;29.97;100.00;64021.00;5087738;28;20200;-74
2022/06/23 11:31:35;;;;;;;13.83;8.87;;;;;;;29.41;100.00;63955.22;5087909;28;20578;-74
2022/06/23 11:34:36;;;;;;;12.77;6.37;;;;;;;29.55;100.00;63970.47;5087533;28;20205;-76
2022/06/23 11:37:28;;;;;;;13.90;6.97;;;;;;;29.94;100.00;64012.47;5078220;28;20212;-73
2022/06/23 11:40:26;;;;;;;12.50;6.63;;;;;;;30.15;100.00;64037.44;5073922;28;20208;-74
2022/06/23 11:43:15;;;;;;;14.70;7.27;;;;;;;30.49;100.00;64072.47;5073440;28;20225;-74
2022/06/23 11:45:57;;;;;;;15.40;7.07;;;;;;;31.01;100.00;64131.31;5073987;28;20234;-75
2022/06/23 11:49:09;;;;;;;12.80;7.13;;;;;;;31.12;100.00;64140.69;5073939;28;20556;-74
2022/06/23 11:51:54;;;;;;;11.70;6.47;;;;;;;31.40;100.00;64176.53;5044926;28;20200;-74
2022/06/23 11:54:34;;;;;;;13.87;6.97;;;;;;;31.13;100.00;64141.78;5073654;28;20212;-74
2022/06/23 11:57:18;;;;;;;10.83;6.60;;;;;;;31.12;100.00;64140.69;5069826;28;20200;-74
2022/06/23 11:59:57;;;;;;;15.13;6.20;;;;;;;31.17;100.00;64151.41;5067375;28;20203;-74
2022/06/23 12:02:24;;;;;;;11.23;6.53;;;;;;;30.57;100.00;64083.28;5074285;28;20603;-76
2022/06/23 12:05:13;;;;;;;12.30;5.50;;;;;;;29.76;100.00;63992.84;5073556;28;20234;-74
2022/06/23 12:08:04;;;;;;;25.37;6.47;;;;;;;29.51;100.00;63965.56;5073331;28;20627;-72